Station: Roxby Downs

  Atmospheric Gas Attenuation - ITU Rec 676-11   --------------- db/100km ---------------
Date Time Temp RH % AH g/m3 Dew Point Wind Direction Speed kph Gust kph Barometer mB Rainfall Since 9am 24GHz 47GHz 76GHz 122GHz 134GHz 241GHz
17 02:10 5.1 68 4.65 -0.3 11 11 1021 0 11.5 22.2 28.2 73.4 56.2 189.2
17 02:00 4.1 72 4.61 -0.5 4 9 1021.3 0 11.4 22.4 28.5 73.9 56.4 189.8
17 01:50 3.8 71 4.46 -1 0 0 1021.3 0 11.1 22.3 28.0 72.6 54.7 183.7
17 01:40 4 70 4.45 -1 0 0 1021.4 0 11.1 22.2 27.9 72.3 54.4 182.8
17 01:30 4.2 70 4.51 -0.8 0 0 1021.6 0 11.2 22.3 28.0 72.8 55.1 185.1
17 01:20 4.3 70 4.54 -0.7 0 0 1021.7 0 11.3 22.3 28.1 73.0 55.4 186.2
17 01:10 4.5 68 4.47 -0.9 0 0 1021.8 0 11.1 22.1 27.8 72.1 54.4 182.6
17 01:00 4.6 72 4.77 0 0 0 1022 0 11.8 22.6 28.9 75.2 58.1 195.9
17 00:50 4.7 73 4.87 0.3 0 0 1022.1 0 12.0 22.7 29.3 76.1 59.4 200.2
17 00:40 5 71 4.83 0.2 0 0 1022.2 0 11.9 22.6 29.0 75.4 58.6 197.7
17 00:30 5.2 70 4.82 0.2 0 0 1022.4 0 11.8 22.5 28.9 75.1 58.4 196.8
17 00:20 4.9 68 4.59 -0.5 0 0 1022.3 0 11.4 22.2 28.1 73.0 55.6 187.2
17 00:10 5.3 69 4.79 0.1 0 0 1022.3 0 11.8 22.4 28.8 74.7 57.9 195.2
17 00:00 5.2 69 4.75 0 0 0 1022.5 0 11.7 22.4 28.7 74.4 57.5 193.7
16 23:50 5.2 69 4.75 0 0 0 1022.4 0 11.7 22.4 28.6 74.4 57.5 193.6
16 23:40 5.7 67 4.77 0.1 0 0 1022.4 0 11.7 22.3 28.5 74.2 57.3 193.3
16 23:30 5.7 68 4.84 0.3 0 0 1022.6 0 11.9 22.4 28.8 74.9 58.3 196.5
16 23:20 6 66 4.79 0.1 0 0 1022.5 0 11.8 22.3 28.5 74.1 57.4 193.5
16 23:10 6.2 67 4.93 0.5 0 0 1022.6 0 12.0 22.5 29.0 75.4 59.0 199.3
16 23:00 6.5 65 4.88 0.4 0 0 1022.6 0 11.9 22.3 28.7 74.6 58.2 196.3
16 22:50 6.2 68 5 0.7 0 0 1022.7 0 12.2 22.6 29.3 76.1 59.9 202.4
16 22:40 6.3 67 4.96 0.6 0 0 1022.7 0 12.1 22.5 29.1 75.6 59.3 200.4
16 22:30 6.5 65 4.88 0.4 0 0 1022.8 0 11.9 22.3 28.7 74.6 58.2 196.3
16 22:20 6.6 66 4.99 0.7 0 0 1022.7 0 12.2 22.4 29.1 75.6 59.5 201.0
16 22:10 7.2 66 5.18 1.3 0 0 1022.8 0 12.5 22.6 29.6 77.0 61.4 207.9
16 22:00 7 66 5.12 1.1 0 0 1022.9 0 12.4 22.6 29.4 76.6 60.8 205.8
16 21:50 7.5 69 5.53 2.2 0 0 1022.9 0 13.3 23.1 30.8 80.3 65.7 222.8
16 21:40 7.5 68 5.45 2 0 0 1022.9 0 13.1 22.9 30.5 79.5 64.7 219.2
16 21:30 7.9 59 4.85 0.4 0 0 1023.2 0 11.8 21.9 28.1 73.0 56.8 191.7
16 21:20 8.1 65 5.41 1.9 0 0 1023.1 0 13.0 22.7 30.2 78.5 63.7 215.8
16 21:10 8.5 59 5.04 1 4 6 1023.1 0 12.2 22.1 28.6 74.4 58.7 198.5
16 21:00 8.6 58 4.99 0.8 7 7 1023.1 0 12.1 22.0 28.4 73.8 58.0 196.1
16 20:50 9 54 4.76 0.2 7 7 1023.1 0 11.6 21.5 27.4 71.1 54.9 185.2
16 20:40 9.5 57 5.19 1.4 9 9 1023.1 0 12.5 22.1 28.8 74.9 59.8 202.5
16 20:30 9.3 65 5.84 3.1 0 0 1023.1 0 13.9 23.1 31.4 81.7 68.1 231.6
16 20:20 9.1 63 5.59 2.4 0 0 1023 0 13.4 22.8 30.5 79.3 65.1 221.1
16 20:10 9.6 61 5.59 2.5 0 0 1022.9 0 13.3 22.6 30.3 78.8 64.7 219.7
16 20:00 9.8 61 5.66 2.6 2 6 1023 0 13.5 22.7 30.5 79.3 65.4 222.2
16 19:50 10.7 62 6.09 3.7 0 0 1022.8 0 14.4 23.1 31.8 82.8 70.0 238.5
16 19:40 10.5 57 5.53 2.4 0 0 1022.8 0 13.2 22.3 29.7 77.3 63.2 214.6
16 19:30 11 57 5.71 2.8 0 0 1022.8 0 13.5 22.5 30.2 78.6 65.0 221.0
16 19:20 11.2 57 5.78 3 0 0 1022.6 0 13.7 22.5 30.4 79.1 65.7 223.5
16 19:10 11.5 51 5.27 1.7 0 0 1022.6 0 12.6 21.7 28.4 73.8 59.3 200.9
16 19:00 12 52 5.54 2.5 0 0 1022.7 0 13.1 22.0 29.2 76.0 62.2 211.0
16 18:50 12.5 48 5.28 1.8 0 0 1022.5 0 12.6 21.5 28.1 73.0 58.6 198.8
16 18:40 13 48 5.44 2.3 0 0 1022.4 0 12.9 21.6 28.5 74.1 60.2 204.2
16 18:30 13.6 49 5.77 3.1 0 0 1022.4 0 13.6 21.9 29.5 76.7 63.6 216.5
16 18:20 14.3 42 5.16 1.6 0 0 1022.2 0 12.3 20.9 27.0 70.2 55.9 189.5
16 18:10 15.3 42 5.48 2.5 0 0 1022.2 0 12.9 21.1 27.8 72.4 58.9 200.1
16 18:00 16.3 37 5.13 1.6 6 6 1022.2 0 12.1 20.4 26.3 68.3 54.2 183.8
16 17:50 17.3 35 5.16 1.7 6 6 1022 0 12.2 20.2 26.1 67.7 53.9 182.7
16 17:40 18 32 4.91 1.1 6 7 1022.1 0 11.6 19.7 25.0 64.9 50.7 171.5
16 17:30 18.9 29 4.7 0.5 6 7 1022.1 0 11.2 19.3 24.1 62.4 47.9 161.8
16 17:20 19.7 27 4.58 0.2 0 0 1021.9 0 10.9 18.9 23.5 60.8 46.2 155.7
16 17:10 20.1 27 4.69 0.5 0 0 1021.9 0 11.1 19.0 23.7 61.4 47.1 159.1
16 17:00 19.9 27 4.64 0.4 2 7 1022 0 11.0 19.0 23.6 61.1 46.7 157.6
16 16:50 20.3 26 4.57 0.2 0 0 1021.9 0 10.8 18.8 23.3 60.2 45.7 154.3
16 16:40 20.3 26 4.57 0.2 4 6 1021.9 0 10.8 18.8 23.3 60.2 45.7 154.3
16 16:30 20.3 25 4.4 -0.3 6 9 1022.1 0 10.5 18.6 22.7 58.8 44.0 148.1
16 16:20 20.9 25 4.55 0.2 0 0 1022 0 10.8 18.7 23.1 59.6 45.2 152.5
16 16:10 20.4 26 4.6 0.3 6 7 1022.1 0 10.9 18.8 23.3 60.4 46.0 155.2
16 16:00 20.4 26 4.6 0.3 9 11 1022.2 0 10.9 18.8 23.4 60.4 46.0 155.2
16 15:50 20.5 27 4.8 0.9 9 11 1022.3 0 11.3 19.1 24.0 62.1 48.0 162.4
16 15:40 20.2 26 4.55 0.1 9 11 1022.3 0 10.8 18.8 23.3 60.2 45.6 153.8
16 15:30 21 25 4.58 0.2 6 11 1022.4 0 10.8 18.7 23.1 59.9 45.5 153.4
16 15:20 20.4 27 4.78 0.8 9 11 1022.3 0 11.3 19.1 23.9 62.0 47.9 161.9
16 15:10 20.5 26 4.63 0.4 0 0 1022.4 0 11.0 18.9 23.4 60.6 46.3 156.2
16 15:00 20.2 27 4.72 0.6 6 11 1022.5 0 11.2 19.0 23.8 61.6 47.4 160.1
16 14:50 20.7 27 4.86 1.1 4 6 1022.5 0 11.4 19.1 24.1 62.4 48.6 164.3
16 14:40 20.7 26 4.68 0.5 7 9 1022.5 0 11.1 18.9 23.5 60.9 46.7 157.6
16 14:30 20.5 28 4.98 1.4 7 11 1022.8 0 11.7 19.3 24.5 63.6 50.0 169.2
16 14:20 20.1 28 4.87 1 7 7 1022.8 0 11.5 19.3 24.3 63.0 49.0 165.9
16 14:10 20.2 27 4.72 0.6 6 9 1022.8 0 11.2 19.0 23.8 61.6 47.4 160.1
16 14:00 19.9 28 4.81 0.9 9 15 1023 0 11.4 19.2 24.2 62.7 48.5 164.1
16 13:50 19.9 30 5.15 1.8 9 11 1023 0 12.1 19.7 25.3 65.6 52.2 176.8
16 13:40 19.9 29 4.98 1.4 6 7 1023.1 0 11.7 19.4 24.7 64.1 50.3 170.4
16 13:30 19.8 29 4.95 1.3 6 13 1023.3 0 11.7 19.4 24.7 64.0 50.1 169.6
16 13:20 19.8 30 5.12 1.7 0 0 1023.4 0 12.0 19.7 25.2 65.4 51.9 176.0
16 13:10 18.9 30 4.86 1 7 11 1023.6 0 11.5 19.5 24.7 63.9 49.7 168.0
16 13:00 19 31 5.05 1.5 6 11 1023.9 0 11.9 19.8 25.3 65.5 51.7 175.1
16 12:50 19 31 5.05 1.5 6 7 1024 0 11.9 19.8 25.3 65.5 51.7 175.1
16 12:40 18.6 32 5.09 1.6 9 9 1024.2 0 12.0 19.9 25.5 66.2 52.4 177.5
16 12:30 18.4 33 5.19 1.9 9 13 1024.6 0 12.2 20.1 25.9 67.3 53.6 181.9
16 12:20 18.4 32 5.03 1.4 7 9 1024.7 0 11.9 19.9 25.4 65.9 51.9 175.7
16 12:10 18.2 32 4.97 1.3 11 15 1024.9 0 11.7 19.8 25.3 65.5 51.4 173.9
16 12:00 17.9 34 5.19 1.8 9 15 1025.3 0 12.2 20.2 26.1 67.7 54.0 183.1
16 11:50 17.5 35 5.22 1.9 13 15 1025.4 0 12.3 20.4 26.3 68.3 54.6 185.1
16 11:40 17.5 36 5.37 2.3 13 13 1025.6 0 12.6 20.6 26.8 69.7 56.3 191.1
16 11:30 17.5 37 5.52 2.7 11 19 1025.9 0 12.9 20.8 27.4 71.1 58.0 197.0
16 11:20 17 39 5.64 3 13 15 1025.9 0 13.2 21.1 27.9 72.6 59.7 203.0
16 11:10 16.4 40 5.58 2.8 11 13 1026.1 0 13.1 21.1 27.9 72.6 59.5 202.1
16 11:00 16 41 5.59 2.8 11 15 1026.3 0 13.1 21.2 28.1 73.1 59.9 203.6
16 10:50 15.6 41 5.45 2.4 11 13 1026.3 0 12.8 21.1 27.8 72.1 58.6 198.9
16 10:40 15.1 43 5.55 2.6 11 15 1026.4 0 13.1 21.4 28.3 73.5 60.1 204.2
16 10:30 14.8 43 5.45 2.4 9 13 1026.7 0 12.9 21.3 28.1 72.9 59.2 200.9
16 10:20 14.5 45 5.6 2.7 9 11 1026.5 0 13.2 21.6 28.7 74.6 61.2 207.8
16 10:10 13.7 47 5.57 2.6 11 11 1026.5 0 13.2 21.7 28.9 75.0 61.4 208.6
16 10:00 13.6 47 5.53 2.5 9 11 1026.6 0 13.1 21.7 28.8 74.7 61.0 207.2
16 09:50 13.1 49 5.59 2.6 7 9 1026.3 0 13.2 21.9 29.1 75.8 62.1 211.0
16 09:40 12.4 50 5.46 2.3 6 6 1026.3 0 13.0 21.9 28.9 75.1 61.1 207.3

Last Refresh: 17-Jul-2020 02:14:30

Most of the information presented on this site is sourced from the Bureau of Meteorology.  Copyright in all material sourced from the Bureau of Meteorology resides with the Commonwealth of Australia.